createdAt,value
2023-01-29T00:00:22.254Z,52.20
2023-01-29T00:02:49.308Z,52.49
2023-01-29T00:05:27.631Z,52.49
2023-01-29T00:07:56.393Z,53.11
2023-01-29T00:10:25.237Z,52.88
2023-01-29T00:12:51.963Z,52.63
2023-01-29T00:15:18.791Z,52.88
2023-01-29T00:17:45.411Z,52.69
2023-01-29T00:20:12.454Z,53.23
2023-01-29T00:22:39.152Z,53.27
2023-01-29T00:25:06.352Z,52.91
2023-01-29T00:27:32.964Z,52.65
2023-01-29T00:30:09.522Z,52.95
2023-01-29T00:32:36.320Z,52.63
2023-01-29T00:35:03.516Z,52.79
2023-01-29T00:37:30.527Z,52.70
2023-01-29T00:39:57.718Z,52.92
2023-01-29T00:42:43.462Z,52.53
2023-01-29T00:45:12.043Z,52.20
2023-01-29T00:47:38.798Z,52.55
2023-01-29T00:50:11.005Z,52.73
2023-01-29T00:52:38.428Z,52.82
2023-01-29T00:55:06.251Z,52.86
2023-01-29T00:57:34.573Z,53.08
2023-01-29T01:00:02.155Z,53.28
2023-01-29T01:02:47.957Z,52.54
2023-01-29T01:05:19.726Z,52.74
2023-01-29T01:07:47.860Z,52.22
2023-01-29T01:10:21.632Z,52.90
2023-01-29T01:12:58.839Z,52.78
2023-01-29T01:15:30.715Z,52.75
2023-01-29T01:18:00.195Z,53.24
2023-01-29T01:20:29.884Z,52.54
2023-01-29T01:22:57.182Z,53.46
2023-01-29T01:25:26.070Z,52.97
2023-01-29T01:27:57.395Z,53.31
2023-01-29T01:30:24.974Z,52.68
2023-01-29T01:32:51.735Z,53.29
2023-01-29T01:35:18.820Z,52.92
2023-01-29T01:37:45.458Z,53.58
2023-01-29T01:40:18.932Z,53.03
2023-01-29T01:42:55.571Z,52.67
2023-01-29T01:45:34.326Z,53.08
2023-01-29T01:48:17.089Z,52.79
2023-01-29T01:50:50.526Z,52.97
2023-01-29T01:53:26.593Z,52.98
2023-01-29T01:56:02.060Z,52.22
2023-01-29T01:58:39.553Z,52.37
2023-01-29T02:01:09.178Z,51.95
2023-01-29T02:04:03.844Z,52.62
2023-01-29T02:06:50.233Z,52.55
2023-01-29T02:09:35.367Z,52.31
2023-01-29T02:12:12.334Z,52.83
2023-01-29T02:14:41.765Z,52.94
2023-01-29T02:17:20.008Z,52.96
2023-01-29T02:20:06.132Z,52.46
2023-01-29T02:22:47.767Z,52.71
2023-01-29T02:25:39.283Z,52.99
2023-01-29T02:28:24.839Z,52.76
2023-01-29T02:31:06.491Z,52.50
2023-01-29T02:33:36.211Z,52.28
2023-01-29T02:36:12.260Z,53.16
2023-01-29T02:39:03.565Z,52.90
2023-01-29T02:41:38.657Z,53.03
2023-01-29T02:44:12.722Z,53.33
2023-01-29T02:46:44.487Z,53.79
2023-01-29T02:49:18.608Z,53.33
2023-01-29T02:51:51.610Z,53.94
2023-01-29T02:54:42.013Z,54.00
2023-01-29T02:57:23.175Z,54.39
2023-01-29T03:00:04.906Z,54.23
2023-01-29T03:02:52.279Z,54.75
2023-01-29T03:05:30.970Z,54.31
2023-01-29T03:08:04.223Z,54.53
2023-01-29T03:10:40.742Z,54.53
2023-01-29T03:13:20.879Z,55.01
2023-01-29T03:16:01.320Z,55.30
2023-01-29T03:18:50.812Z,55.68
2023-01-29T03:21:41.996Z,55.71
2023-01-29T03:24:33.457Z,56.09
2023-01-29T03:27:22.697Z,56.10
2023-01-29T03:30:10.443Z,56.52
2023-01-29T03:32:51.891Z,55.99
2023-01-29T03:35:36.689Z,56.71
2023-01-29T03:38:07.325Z,56.78
2023-01-29T03:40:39.989Z,56.95
2023-01-29T03:43:54.892Z,56.94
2023-01-29T03:46:38.168Z,56.24
2023-01-29T03:49:35.974Z,56.08
2023-01-29T03:52:09.543Z,56.24
2023-01-29T03:55:06.501Z,56.27
2023-01-29T03:57:40.382Z,56.24
2023-01-29T04:00:27.075Z,56.75
2023-01-29T04:03:21.832Z,56.36
2023-01-29T04:05:58.606Z,56.54
2023-01-29T04:08:34.046Z,56.64
2023-01-29T04:11:11.435Z,56.52
2023-01-29T04:13:40.037Z,56.77
2023-01-29T04:16:11.626Z,57.00
2023-01-29T04:18:57.211Z,56.60
2023-01-29T04:21:32.013Z,57.08
2023-01-29T04:23:59.426Z,56.70
2023-01-29T04:26:44.668Z,56.83
2023-01-29T04:29:38.382Z,56.55
2023-01-29T04:32:22.230Z,56.98
2023-01-29T04:35:24.668Z,57.40
2023-01-29T04:38:17.592Z,57.30
2023-01-29T04:41:02.289Z,57.02
2023-01-29T04:43:53.695Z,57.13
2023-01-29T04:46:31.876Z,56.58
2023-01-29T04:49:06.967Z,56.82
2023-01-29T04:51:33.571Z,56.72
2023-01-29T04:54:12.696Z,56.92
2023-01-29T04:57:03.702Z,57.01
2023-01-29T04:59:45.763Z,57.38
2023-01-29T05:02:13.379Z,57.20
2023-01-29T05:04:43.173Z,57.50
2023-01-29T05:07:13.923Z,57.98
2023-01-29T05:09:45.122Z,58.21
2023-01-29T05:12:15.994Z,58.59
2023-01-29T05:14:44.695Z,58.29
2023-01-29T05:17:20.471Z,58.46
2023-01-29T05:19:47.737Z,58.31
2023-01-29T05:22:17.855Z,58.35
2023-01-29T05:24:44.862Z,58.67
2023-01-29T05:27:43.397Z,59.03
2023-01-29T05:30:10.537Z,58.92
2023-01-29T05:32:37.346Z,58.74
2023-01-29T05:35:04.237Z,58.82
2023-01-29T05:37:30.971Z,58.81
2023-01-29T05:39:57.607Z,58.96
2023-01-29T05:42:24.311Z,58.78
2023-01-29T05:44:50.996Z,58.50
2023-01-29T05:47:20.933Z,58.78
2023-01-29T05:49:47.723Z,58.48
2023-01-29T05:52:14.359Z,58.78
2023-01-29T05:54:41.060Z,59.42
2023-01-29T05:57:07.665Z,59.94
2023-01-29T05:59:34.380Z,59.31
2023-01-29T06:02:01.036Z,59.46
2023-01-29T06:04:27.700Z,59.23
2023-01-29T06:06:54.372Z,58.81
2023-01-29T06:09:21.094Z,58.90
2023-01-29T06:11:47.726Z,58.80
2023-01-29T06:14:14.411Z,59.01
2023-01-29T06:16:41.007Z,59.43
2023-01-29T06:19:07.659Z,59.54
2023-01-29T06:21:34.394Z,59.88
2023-01-29T06:24:01.123Z,59.52
2023-01-29T06:26:27.885Z,59.64
2023-01-29T06:28:54.682Z,59.50
2023-01-29T06:31:37.225Z,59.16
2023-01-29T06:34:06.132Z,59.80
2023-01-29T06:36:32.762Z,59.54
2023-01-29T06:38:59.510Z,59.12
2023-01-29T06:41:26.275Z,59.15
2023-01-29T06:43:52.929Z,58.78
2023-01-29T06:46:19.708Z,58.86
2023-01-29T06:48:46.349Z,58.82
2023-01-29T06:51:13.000Z,59.11
2023-01-29T06:53:40.550Z,58.32
2023-01-29T06:56:08.073Z,58.32
2023-01-29T06:58:38.249Z,58.67
2023-01-29T07:01:10.318Z,58.83
2023-01-29T07:03:37.295Z,58.86
2023-01-29T07:06:04.765Z,58.45
2023-01-29T07:08:31.754Z,58.42
2023-01-29T07:11:00.395Z,58.66
2023-01-29T07:13:27.496Z,58.73
2023-01-29T07:15:54.148Z,58.69
2023-01-29T07:18:20.860Z,59.17
2023-01-29T07:20:47.506Z,59.54
2023-01-29T07:23:14.927Z,59.59
2023-01-29T07:25:41.632Z,59.52
2023-01-29T07:28:08.434Z,59.00
2023-01-29T07:30:35.897Z,59.10
2023-01-29T07:33:08.870Z,59.48
2023-01-29T07:35:40.790Z,59.45
2023-01-29T07:38:08.892Z,58.97
2023-01-29T07:40:35.781Z,59.25
2023-01-29T07:43:05.537Z,59.27
2023-01-29T07:45:38.501Z,58.94
2023-01-29T07:48:06.827Z,59.53
2023-01-29T07:50:35.259Z,58.94
2023-01-29T07:53:02.367Z,58.95
2023-01-29T07:55:29.441Z,59.13
2023-01-29T07:57:57.255Z,59.23
2023-01-29T08:00:24.070Z,58.95
2023-01-29T08:02:50.794Z,58.77
2023-01-29T08:05:17.500Z,59.30
2023-01-29T08:07:49.259Z,59.27
2023-01-29T08:10:20.836Z,58.96
2023-01-29T08:12:47.563Z,59.32
2023-01-29T08:15:14.216Z,58.50
2023-01-29T08:17:56.114Z,57.58
2023-01-29T08:20:24.264Z,57.31
2023-01-29T08:22:58.826Z,56.59
2023-01-29T08:25:28.915Z,56.31
2023-01-29T08:27:59.858Z,56.54
2023-01-29T08:30:28.922Z,55.64
2023-01-29T08:32:55.702Z,55.01
2023-01-29T08:35:22.964Z,54.52
2023-01-29T08:37:59.145Z,53.74
2023-01-29T08:40:27.660Z,52.28
2023-01-29T08:43:07.757Z,50.70
2023-01-29T08:45:38.775Z,48.93
2023-01-29T08:48:05.936Z,47.89
2023-01-29T08:50:34.839Z,47.00
2023-01-29T08:53:05.164Z,45.44
2023-01-29T08:55:31.834Z,44.98
2023-01-29T08:57:58.575Z,44.22
2023-01-29T09:00:25.358Z,45.48
2023-01-29T09:02:52.194Z,46.55
2023-01-29T09:05:19.331Z,47.49
2023-01-29T09:07:46.211Z,49.23
2023-01-29T09:10:13.417Z,50.29
2023-01-29T09:12:40.058Z,51.10
2023-01-29T09:15:07.219Z,50.63
2023-01-29T09:17:33.899Z,50.70
2023-01-29T09:20:00.517Z,51.61
2023-01-29T09:22:27.172Z,50.61
2023-01-29T09:24:53.920Z,50.64
2023-01-29T09:27:20.553Z,50.39
2023-01-29T09:29:47.180Z,49.36
2023-01-29T09:32:14.639Z,47.73
2023-01-29T09:34:41.347Z,47.31
2023-01-29T09:37:08.012Z,46.66
2023-01-29T09:39:34.828Z,45.58
2023-01-29T09:42:10.743Z,45.24
2023-01-29T09:44:52.963Z,45.79
2023-01-29T09:47:20.464Z,45.36
2023-01-29T09:49:51.162Z,44.68
2023-01-29T09:52:22.174Z,44.32
2023-01-29T09:55:10.602Z,43.26
2023-01-29T09:57:50.271Z,43.38
2023-01-29T10:00:40.290Z,43.18
2023-01-29T10:03:25.695Z,42.71
2023-01-29T10:05:58.098Z,42.77
2023-01-29T10:08:41.774Z,41.10
2023-01-29T10:11:24.002Z,41.37
2023-01-29T10:14:18.252Z,41.63
2023-01-29T10:17:01.219Z,39.81
2023-01-29T10:19:48.252Z,40.54
2023-01-29T10:22:33.815Z,40.10
2023-01-29T10:25:03.955Z,40.15
2023-01-29T10:27:34.619Z,38.79
2023-01-29T10:30:06.642Z,38.92
2023-01-29T10:32:36.868Z,39.71
2023-01-29T10:35:28.075Z,40.54
2023-01-29T10:37:56.379Z,42.07
2023-01-29T10:40:47.076Z,42.99
2023-01-29T10:43:38.969Z,43.18
2023-01-29T10:46:32.155Z,42.47
2023-01-29T10:49:08.289Z,42.20
2023-01-29T10:52:04.588Z,40.30
2023-01-29T10:54:45.704Z,38.78
2023-01-29T10:57:38.495Z,35.89
2023-01-29T11:00:18.257Z,33.40
2023-01-29T11:02:48.323Z,32.53
2023-01-29T11:05:41.035Z,30.18
2023-01-29T11:08:13.572Z,29.42
2023-01-29T11:11:13.423Z,28.73
2023-01-29T11:13:46.984Z,26.95
2023-01-29T11:16:13.980Z,25.35
2023-01-29T11:18:53.759Z,24.39
2023-01-29T11:21:21.374Z,23.87
2023-01-29T11:23:48.020Z,22.96
2023-01-29T11:26:20.709Z,21.92
2023-01-29T11:28:49.641Z,21.23
2023-01-29T11:31:38.196Z,20.77
2023-01-29T11:34:21.067Z,21.00
2023-01-29T11:37:04.557Z,22.82
2023-01-29T11:39:32.533Z,23.74
2023-01-29T11:42:04.619Z,25.17
2023-01-29T11:44:41.338Z,27.28
2023-01-29T11:47:20.107Z,29.36
2023-01-29T11:49:50.206Z,30.39
2023-01-29T11:52:23.723Z,29.02
2023-01-29T11:54:58.648Z,29.26
2023-01-29T11:57:35.796Z,28.82
2023-01-29T12:00:31.247Z,27.07
2023-01-29T12:03:30.562Z,26.96
2023-01-29T12:06:21.732Z,26.81
2023-01-29T12:09:03.144Z,26.82
2023-01-29T12:11:29.822Z,25.99
2023-01-29T12:13:59.218Z,24.64
2023-01-29T12:16:40.612Z,24.02
2023-01-29T12:19:30.215Z,23.71
2023-01-29T12:22:20.315Z,24.22
2023-01-29T12:24:57.569Z,26.01
2023-01-29T12:27:35.911Z,29.02
2023-01-29T12:30:11.436Z,31.62
2023-01-29T12:32:49.666Z,32.81
2023-01-29T12:35:31.647Z,34.78
2023-01-29T12:38:14.545Z,36.21
2023-01-29T12:40:48.720Z,36.37
2023-01-29T12:43:33.394Z,37.40
2023-01-29T12:46:02.084Z,38.16
2023-01-29T12:48:34.220Z,38.50
2023-01-29T12:51:11.900Z,38.68
2023-01-29T12:53:48.127Z,39.39
2023-01-29T12:56:33.156Z,40.63
2023-01-29T12:59:04.900Z,40.02
2023-01-29T13:01:38.354Z,40.97
2023-01-29T13:04:29.440Z,40.45
2023-01-29T13:07:06.003Z,40.73
2023-01-29T13:09:34.683Z,41.04
2023-01-29T13:12:07.134Z,42.26
2023-01-29T13:14:46.860Z,42.20
2023-01-29T13:17:21.393Z,42.13
2023-01-29T13:19:52.344Z,41.44
2023-01-29T13:22:25.945Z,41.77
2023-01-29T13:25:04.723Z,41.73
2023-01-29T13:27:34.873Z,42.88
2023-01-29T13:30:01.894Z,42.42
2023-01-29T13:32:31.155Z,42.34
2023-01-29T13:35:12.556Z,42.38
2023-01-29T13:37:47.917Z,42.27
2023-01-29T13:40:26.592Z,42.89
2023-01-29T13:42:55.256Z,42.07
2023-01-29T13:45:34.930Z,42.78
2023-01-29T13:48:23.341Z,43.29
2023-01-29T13:50:51.679Z,43.63
2023-01-29T13:53:25.161Z,43.14
2023-01-29T13:55:51.862Z,43.97
2023-01-29T13:58:38.394Z,43.96
2023-01-29T14:01:05.135Z,44.27
2023-01-29T14:03:40.015Z,44.64
2023-01-29T14:06:40.083Z,44.28
2023-01-29T14:09:34.394Z,45.39
2023-01-29T14:12:01.164Z,44.72
2023-01-29T14:14:49.790Z,44.38
2023-01-29T14:17:18.434Z,44.49
2023-01-29T14:19:53.764Z,45.13
2023-01-29T14:22:26.960Z,44.75
2023-01-29T14:24:57.442Z,45.07
2023-01-29T14:27:25.687Z,44.71
2023-01-29T14:30:01.241Z,44.88
2023-01-29T14:32:28.283Z,45.95
2023-01-29T14:35:03.690Z,46.30
2023-01-29T14:37:39.484Z,45.51
2023-01-29T14:40:12.144Z,45.59
2023-01-29T14:42:55.592Z,46.99
2023-01-29T14:45:30.812Z,46.45
2023-01-29T14:48:03.538Z,46.89
2023-01-29T14:50:31.838Z,46.98
2023-01-29T14:53:26.025Z,47.14
2023-01-29T14:56:01.121Z,47.75
2023-01-29T14:58:27.703Z,48.13
2023-01-29T15:00:57.216Z,47.53
2023-01-29T15:03:45.724Z,48.21
2023-01-29T15:06:32.392Z,47.83
2023-01-29T15:09:22.039Z,47.66
2023-01-29T15:12:36.258Z,48.26
2023-01-29T15:15:15.993Z,47.88
2023-01-29T15:17:51.899Z,48.21
2023-01-29T15:20:34.081Z,48.56
2023-01-29T15:23:06.011Z,48.83
2023-01-29T15:25:37.368Z,48.67
2023-01-29T15:28:08.554Z,49.06
2023-01-29T15:30:36.365Z,49.26
2023-01-29T15:33:03.989Z,49.64
2023-01-29T15:35:40.981Z,49.90
2023-01-29T15:38:18.299Z,49.88
2023-01-29T15:41:02.953Z,50.28
2023-01-29T15:43:34.644Z,49.86
2023-01-29T15:46:04.575Z,50.74
2023-01-29T15:48:43.520Z,50.72
2023-01-29T15:51:17.376Z,50.57
2023-01-29T15:53:49.873Z,51.02
2023-01-29T15:56:21.447Z,50.77
2023-01-29T15:58:49.618Z,51.51
2023-01-29T16:01:16.677Z,51.60
2023-01-29T16:03:44.226Z,51.17
2023-01-29T16:06:11.636Z,51.83
2023-01-29T16:08:40.481Z,52.26
2023-01-29T16:11:08.597Z,52.50
2023-01-29T16:13:42.849Z,52.24
2023-01-29T16:16:15.568Z,51.87
2023-01-29T16:18:57.867Z,52.54
2023-01-29T16:21:35.551Z,52.70
2023-01-29T16:24:09.348Z,52.56
2023-01-29T16:26:44.895Z,52.78
2023-01-29T16:29:14.709Z,52.46
2023-01-29T16:31:44.491Z,52.57
2023-01-29T16:34:30.566Z,53.53
2023-01-29T16:36:57.586Z,53.17
2023-01-29T16:39:28.638Z,53.49
2023-01-29T16:42:08.003Z,53.57
2023-01-29T16:44:36.768Z,53.44
2023-01-29T16:47:25.501Z,53.35
2023-01-29T16:50:16.348Z,54.20
2023-01-29T16:52:57.744Z,54.42
2023-01-29T16:55:25.925Z,54.26
2023-01-29T16:57:56.185Z,54.61
2023-01-29T17:00:28.644Z,53.91
2023-01-29T17:03:08.321Z,54.27
2023-01-29T17:05:37.828Z,54.73
2023-01-29T17:08:06.165Z,55.79
2023-01-29T17:10:33.719Z,55.31
2023-01-29T17:13:16.735Z,55.85
2023-01-29T17:15:43.328Z,56.19
2023-01-29T17:18:24.888Z,56.01
2023-01-29T17:20:53.010Z,55.78
2023-01-29T17:23:19.773Z,55.97
2023-01-29T17:25:47.412Z,56.33
2023-01-29T17:28:16.150Z,56.28
2023-01-29T17:30:46.401Z,55.97
2023-01-29T17:33:22.667Z,56.23
2023-01-29T17:35:50.425Z,55.90
2023-01-29T17:38:25.856Z,56.44
2023-01-29T17:40:57.989Z,56.48
2023-01-29T17:43:24.626Z,57.00
2023-01-29T17:45:51.499Z,56.44
2023-01-29T17:48:21.560Z,57.13
2023-01-29T17:50:52.906Z,57.08
2023-01-29T17:53:21.175Z,56.82
2023-01-29T17:55:48.344Z,56.38
2023-01-29T17:58:19.486Z,56.68
2023-01-29T18:00:46.951Z,57.00
2023-01-29T18:03:14.159Z,57.17
2023-01-29T18:05:42.531Z,56.59
2023-01-29T18:08:15.572Z,57.15
2023-01-29T18:10:42.267Z,56.80
2023-01-29T18:13:08.950Z,57.04
2023-01-29T18:15:35.771Z,56.80
2023-01-29T18:18:02.537Z,56.43
2023-01-29T18:20:30.152Z,56.74
2023-01-29T18:22:57.279Z,56.76
2023-01-29T18:25:25.733Z,57.16
2023-01-29T18:27:52.449Z,57.44
2023-01-29T18:30:19.116Z,57.50
2023-01-29T18:32:47.443Z,57.14
2023-01-29T18:35:14.722Z,57.60
2023-01-29T18:37:41.440Z,56.91
2023-01-29T18:40:09.369Z,57.44
2023-01-29T18:42:36.119Z,57.21
2023-01-29T18:45:03.867Z,57.72
2023-01-29T18:47:30.646Z,57.76
2023-01-29T18:49:57.334Z,57.93
2023-01-29T18:52:24.213Z,58.83
2023-01-29T18:54:50.899Z,59.10
2023-01-29T18:58:26.146Z,58.46
2023-01-29T19:00:04.729Z,58.98
2023-01-29T19:02:31.559Z,58.80
2023-01-29T19:04:58.323Z,58.89
2023-01-29T19:07:25.012Z,58.62
2023-01-29T19:09:51.769Z,58.95
2023-01-29T19:12:18.468Z,58.65
2023-01-29T19:14:45.209Z,58.81
2023-01-29T19:17:11.921Z,58.51
2023-01-29T19:19:38.571Z,58.81
2023-01-29T19:22:05.876Z,59.01
2023-01-29T19:24:36.285Z,58.35
2023-01-29T19:27:03.003Z,58.87
2023-01-29T19:29:29.753Z,59.24
2023-01-29T19:31:56.387Z,58.97
2023-01-29T19:34:23.799Z,59.36
2023-01-29T19:36:50.514Z,59.33
2023-01-29T19:39:17.292Z,59.59
2023-01-29T19:41:44.030Z,59.17
2023-01-29T19:44:11.437Z,59.24
2023-01-29T19:46:39.022Z,59.76
2023-01-29T19:49:06.674Z,59.88
2023-01-29T19:51:33.320Z,59.72
2023-01-29T19:53:59.987Z,59.71
2023-01-29T19:56:28.572Z,59.79
2023-01-29T19:58:57.306Z,60.20
2023-01-29T20:01:30.451Z,60.45
2023-01-29T20:03:57.641Z,60.36
2023-01-29T20:06:27.230Z,60.93
2023-01-29T20:08:54.187Z,60.69
2023-01-29T20:11:22.766Z,60.45
2023-01-29T20:13:51.198Z,60.41
2023-01-29T20:16:19.102Z,60.11
2023-01-29T20:18:46.128Z,60.67
2023-01-29T20:21:15.383Z,60.48
2023-01-29T20:23:44.248Z,60.30
2023-01-29T20:26:14.355Z,60.52
2023-01-29T20:28:41.660Z,60.86
2023-01-29T20:31:09.741Z,60.67
2023-01-29T20:33:39.087Z,60.87
2023-01-29T20:36:09.692Z,60.76
2023-01-29T20:38:36.979Z,61.20
2023-01-29T20:41:09.541Z,61.57
2023-01-29T20:43:36.460Z,61.66
2023-01-29T20:46:03.975Z,62.10
2023-01-29T20:48:31.411Z,62.20
2023-01-29T20:51:09.193Z,63.36
2023-01-29T20:53:36.891Z,62.44
2023-01-29T20:56:04.477Z,62.13
2023-01-29T20:58:31.546Z,62.08
2023-01-29T21:00:58.380Z,62.92
2023-01-29T21:03:25.128Z,62.34
2023-01-29T21:05:52.216Z,62.57
2023-01-29T21:08:18.905Z,63.73
2023-01-29T21:10:45.704Z,63.81
2023-01-29T21:13:12.774Z,63.84
2023-01-29T21:15:41.847Z,63.56
2023-01-29T21:18:08.566Z,63.56
2023-01-29T21:20:36.097Z,64.17
2023-01-29T21:23:05.936Z,63.86
2023-01-29T21:25:33.792Z,63.82
2023-01-29T21:28:01.026Z,64.19
2023-01-29T21:30:28.100Z,63.55
2023-01-29T21:32:54.968Z,64.48
2023-01-29T21:35:22.046Z,64.00
2023-01-29T21:37:48.962Z,64.28
2023-01-29T21:40:16.430Z,64.51
2023-01-29T21:43:02.265Z,64.96
2023-01-29T21:45:29.299Z,65.02
2023-01-29T21:47:56.141Z,65.59
2023-01-29T21:50:22.922Z,65.56
2023-01-29T21:52:49.620Z,65.50
2023-01-29T21:55:16.635Z,65.16
2023-01-29T21:57:43.380Z,65.19
2023-01-29T22:00:12.364Z,65.09
2023-01-29T22:02:39.729Z,64.88
2023-01-29T22:05:18.258Z,65.22
2023-01-29T22:07:46.638Z,65.27
2023-01-29T22:10:13.426Z,64.39
2023-01-29T22:12:40.346Z,64.44
2023-01-29T22:15:08.001Z,64.81
2023-01-29T22:17:35.334Z,64.20
2023-01-29T22:20:02.350Z,64.14
2023-01-29T22:22:29.011Z,64.58
2023-01-29T22:24:57.585Z,64.26
2023-01-29T22:27:24.562Z,64.00
2023-01-29T22:29:51.432Z,64.03
2023-01-29T22:32:18.287Z,64.42
2023-01-29T22:34:44.987Z,64.25
2023-01-29T22:37:11.603Z,64.05
2023-01-29T22:39:38.258Z,63.34
2023-01-29T22:42:05.118Z,62.53
2023-01-29T22:44:31.819Z,63.17
2023-01-29T22:46:58.430Z,62.90
2023-01-29T22:49:25.708Z,62.80
2023-01-29T22:52:09.944Z,62.86
2023-01-29T22:54:41.646Z,62.53
2023-01-29T22:57:10.838Z,62.19
2023-01-29T22:59:37.654Z,62.77
2023-01-29T23:02:05.191Z,61.88
2023-01-29T23:04:31.946Z,61.87
2023-01-29T23:06:58.721Z,62.06
2023-01-29T23:09:25.357Z,62.32
2023-01-29T23:11:52.020Z,62.51
2023-01-29T23:14:18.919Z,63.61
2023-01-29T23:16:45.581Z,63.04
2023-01-29T23:19:12.406Z,63.18
2023-01-29T23:21:39.655Z,63.34
2023-01-29T23:24:07.675Z,63.42
2023-01-29T23:26:52.947Z,64.28
2023-01-29T23:29:19.572Z,64.57
2023-01-29T23:31:46.325Z,64.97
2023-01-29T23:34:13.755Z,65.51
2023-01-29T23:36:40.899Z,65.10
2023-01-29T23:39:07.867Z,64.91
2023-01-29T23:41:34.624Z,65.45
2023-01-29T23:44:01.356Z,65.63
2023-01-29T23:46:28.046Z,65.38
2023-01-29T23:48:54.736Z,65.01
2023-01-29T23:51:21.464Z,65.11
2023-01-29T23:53:48.092Z,65.21
2023-01-29T23:56:14.835Z,65.36
2023-01-29T23:58:41.543Z,65.88
